Spokane, WA (99256)

12:51 PM PDT on September 23, 2014 (GMT -0700)
South Hill | Change Station
CLOSE
Current Station
Personal Weather Station
Location: Spokane, WA
Elevation: 2336 ft
Nearby Weather Stations

Elev 2336 ft 47.63 °N, 117.38 °W | Updated 39 minutes ago

Overcast
Overcast
68.9 °F
Feels Like 68.9 °F
N
0.0
Wind Variable Wind from ENE
Gusts 0.0 mph

Today
High -- | Low -- °F
--% Chance of Precip.
Yesterday
High -- | Low -- °F
Precip. -- in
6:37 AM 6:45 PM
Waning Crescent, 0% visible
Pressure 29.88 in
Visibility 10.0 miles
Clouds Mostly Cloudy 9000 ft
Overcast 11000 ft
Dew Point 57 °F
Humidity 65%
Rainfall 0.01 in
Snow Depth 0 in , 0 in , 0 in
UV 2 out of 12
Pollen 6.10 out of 12
PM2.5 Moderate
Flu Activity Not available.
METAR KSFF 231853Z 05005KT 10SM BKN090 OVC110 22/15 A2992 RMK AO2 RAB32E47 SLP116 P0001 T02170150

More Conditions Fewer Conditions

Pressure 29.88 in
Visibility 10.0 miles
Clouds Mostly Cloudy 9000 ft
Overcast 11000 ft
Dew Point 57 °F
Humidity 65%
Rainfall 0.01 in
Snow Depth 0 in , 0 in , 0 in
UV 2 out of 12
Pollen 6.10 out of 12
PM2.5 Moderate
Flu Activity Not available.
METAR KSFF 231853Z 05005KT 10SM BKN090 OVC110 22/15 A2992 RMK AO2 RAB32E47 SLP116 P0001 T02170150

More Conditions Fewer Conditions

10-Day Weather Forecast

Almanac

Astronomy

Sep. 23, 2014 Rise Set
Actual Time 6:37 AM PDT 6:45 PM PDT
Civil Twilight 6:07 AM PDT 7:15 PM PDT
Nautical Twilight 5:30 AM PDT 7:51 PM PDT
Astronomical Twilight 4:53 AM PDT 8:29 PM PDT
Moon 6:06 AM PDT 6:25 PM PDT
Length of Visible Light 13h 08m
Length of Day
12h 07m
Tomorrow will be 3m 25s shorter.
Waning Crescent, 0% of the Moon is Illuminated
Today
Waning Crescent
Sep 24
New
Oct 1
First Quarter
Oct 8
Full
Oct 15
Last Quarter

Today's Extremes

State Highs State Lows

Community

WunderPhotos

Upload Photos

1,755,788 photos uploaded!

WunderBlogs® & News

Nearby

Air Quality

  Air Quality AQ Index Pollutant
Yesterday Good
PM10
Yesterday Good
OZONE
Current Moderate
PM2.5
Tuesday Good
PM10
Tuesday Good
OZONE
Wednesday Good
PM10
Wednesday Good
OZONE

Snow Depth

Station Depth Elevation
Alpine Meadows 0 in 3500 ft
June Lake 0 in 3340 ft
Burnt Mountain 0 in 4200 ft
Mount Crag 0 in 4050 ft
Stevens Pass 0 in 4070 ft

Earthquake Activity

City Distance Mag. Time & Date
No recent earthquake activity has been reported nearby.
Minimum magnitude displayed is 2.5.

Coastal Water Temperatures

Place Temperature
No Stations Reporting

Nearby Weather Stations